sensor_id;sensor_type;location;lat;lon;timestamp;pressure;altitude;pressure_sealevel;temperature;humidity
57668;BME280;43499;52.366;12.912;2023-02-19T00:00:53;101150.16;;;5.47;100.00
57668;BME280;43499;52.366;12.912;2023-02-19T00:01:54;101121.94;;;5.27;100.00
57668;BME280;43499;52.366;12.912;2023-02-19T00:02:55;101149.25;;;5.46;100.00
57668;BME280;43499;52.366;12.912;2023-02-19T00:04:01;101145.06;;;5.39;100.00
57668;BME280;43499;52.366;12.912;2023-02-19T00:05:02;101142.47;;;5.39;100.00
57668;BME280;43499;52.366;12.912;2023-02-19T00:06:05;101135.81;;;5.34;100.00
57668;BME280;43499;52.366;12.912;2023-02-19T00:07:06;101124.53;;;5.27;100.00
57668;BME280;43499;52.366;12.912;2023-02-19T00:08:07;101132.63;;;5.21;100.00
57668;BME280;43499;52.366;12.912;2023-02-19T00:09:10;101151.94;;;5.39;100.00
57668;BME280;43499;52.366;12.912;2023-02-19T00:10:12;101127.34;;;5.28;100.00
57668;BME280;43499;52.366;12.912;2023-02-19T00:11:16;101153.94;;;5.41;100.00
57668;BME280;43499;52.366;12.912;2023-02-19T00:12:17;101120.34;;;5.20;100.00
57668;BME280;43499;52.366;12.912;2023-02-19T00:13:18;101161.63;;;5.40;100.00
57668;BME280;43499;52.366;12.912;2023-02-19T00:14:20;101149.53;;;5.40;100.00
57668;BME280;43499;52.366;12.912;2023-02-19T00:15:21;101123.03;;;5.29;100.00
57668;BME280;43499;52.366;12.912;2023-02-19T00:16:24;101122.69;;;5.25;100.00
57668;BME280;43499;52.366;12.912;2023-02-19T00:17:26;101123.28;;;5.23;100.00
57668;BME280;43499;52.366;12.912;2023-02-19T00:18:27;101134.22;;;5.28;100.00
57668;BME280;43499;52.366;12.912;2023-02-19T00:19:28;101142.22;;;5.29;100.00
57668;BME280;43499;52.366;12.912;2023-02-19T00:20:29;101120.94;;;5.17;100.00
57668;BME280;43499;52.366;12.912;2023-02-19T00:21:30;101132.28;;;5.18;100.00
57668;BME280;43499;52.366;12.912;2023-02-19T00:22:32;101145.88;;;5.31;100.00
57668;BME280;43499;52.366;12.912;2023-02-19T00:23:33;101155.16;;;5.36;100.00
57668;BME280;43499;52.366;12.912;2023-02-19T00:24:34;101144.22;;;5.32;100.00
57668;BME280;43499;52.366;12.912;2023-02-19T00:25:36;101147.75;;;5.32;100.00
57668;BME280;43499;52.366;12.912;2023-02-19T00:26:38;101125.50;;;5.27;100.00
57668;BME280;43499;52.366;12.912;2023-02-19T00:27:40;101139.16;;;5.33;100.00
57668;BME280;43499;52.366;12.912;2023-02-19T00:28:41;101124.72;;;5.28;100.00
57668;BME280;43499;52.366;12.912;2023-02-19T00:29:42;101117.84;;;5.13;100.00
57668;BME280;43499;52.366;12.912;2023-02-19T00:30:43;101103.63;;;5.02;100.00
57668;BME280;43499;52.366;12.912;2023-02-19T00:31:44;101144.22;;;5.32;100.00
57668;BME280;43499;52.366;12.912;2023-02-19T00:32:49;101119.09;;;5.16;100.00
57668;BME280;43499;52.366;12.912;2023-02-19T00:33:53;101144.97;;;5.31;100.00
57668;BME280;43499;52.366;12.912;2023-02-19T00:34:54;101068.09;;;4.86;100.00
57668;BME280;43499;52.366;12.912;2023-02-19T00:35:59;101145.66;;;5.21;100.00
57668;BME280;43499;52.366;12.912;2023-02-19T00:37:00;101094.56;;;4.98;100.00
57668;BME280;43499;52.366;12.912;2023-02-19T00:38:01;101110.44;;;5.08;100.00
57668;BME280;43499;52.366;12.912;2023-02-19T00:39:04;101070.72;;;4.86;100.00
57668;BME280;43499;52.366;12.912;2023-02-19T00:40:05;101086.09;;;4.92;100.00
57668;BME280;43499;52.366;12.912;2023-02-19T00:41:07;101142.22;;;5.29;100.00
57668;BME280;43499;52.366;12.912;2023-02-19T00:42:21;101144.47;;;5.26;100.00
57668;BME280;43499;52.366;12.912;2023-02-19T00:43:22;101131.97;;;5.15;100.00
57668;BME280;43499;52.366;12.912;2023-02-19T00:44:23;101131.72;;;5.20;100.00
57668;BME280;43499;52.366;12.912;2023-02-19T00:45:24;101132.28;;;5.18;100.00
57668;BME280;43499;52.366;12.912;2023-02-19T00:46:28;101129.84;;;5.19;100.00
57668;BME280;43499;52.366;12.912;2023-02-19T00:47:29;101125.41;;;5.18;100.00
57668;BME280;43499;52.366;12.912;2023-02-19T00:48:30;101107.81;;;5.08;100.00
57668;BME280;43499;52.366;12.912;2023-02-19T00:49:31;101091.34;;;5.01;100.00
57668;BME280;43499;52.366;12.912;2023-02-19T00:50:32;101081.19;;;4.95;100.00
57668;BME280;43499;52.366;12.912;2023-02-19T00:51:35;101084.25;;;4.91;100.00
57668;BME280;43499;52.366;12.912;2023-02-19T00:52:36;101065.91;;;4.82;100.00
57668;BME280;43499;52.366;12.912;2023-02-19T00:53:38;101079.03;;;4.91;100.00
57668;BME280;43499;52.366;12.912;2023-02-19T00:54:39;101090.28;;;4.99;100.00
57668;BME280;43499;52.366;12.912;2023-02-19T00:55:40;101101.22;;;5.03;100.00
57668;BME280;43499;52.366;12.912;2023-02-19T00:56:41;101092.97;;;4.91;100.00
57668;BME280;43499;52.366;12.912;2023-02-19T00:57:42;101092.13;;;5.00;100.00
57668;BME280;43499;52.366;12.912;2023-02-19T00:58:43;101029.13;;;4.63;100.00
57668;BME280;43499;52.366;12.912;2023-02-19T00:59:44;101047.44;;;4.72;100.00
57668;BME280;43499;52.366;12.912;2023-02-19T01:00:45;101106.06;;;5.00;100.00
57668;BME280;43499;52.366;12.912;2023-02-19T01:01:46;101109.09;;;4.96;100.00
57668;BME280;43499;52.366;12.912;2023-02-19T01:02:49;101062.91;;;4.70;100.00
57668;BME280;43499;52.366;12.912;2023-02-19T01:03:50;101092.81;;;4.90;100.00
57668;BME280;43499;52.366;12.912;2023-02-19T01:04:51;101108.94;;;4.94;100.00
57668;BME280;43499;52.366;12.912;2023-02-19T01:05:53;101072.31;;;4.77;100.00
57668;BME280;43499;52.366;12.912;2023-02-19T01:06:54;101099.88;;;4.91;100.00
57668;BME280;43499;52.366;12.912;2023-02-19T01:07:55;101100.38;;;4.96;100.00
57668;BME280;43499;52.366;12.912;2023-02-19T01:08:56;101063.72;;;4.78;100.00
57668;BME280;43499;52.366;12.912;2023-02-19T01:09:57;101091.44;;;4.93;100.00
57668;BME280;43499;52.366;12.912;2023-02-19T01:11:00;101082.72;;;4.93;100.00
57668;BME280;43499;52.366;12.912;2023-02-19T01:12:01;101080.13;;;4.93;100.00
57668;BME280;43499;52.366;12.912;2023-02-19T01:13:02;101066.75;;;4.90;100.00
57668;BME280;43499;52.366;12.912;2023-02-19T01:14:03;101028.63;;;4.74;100.00
57668;BME280;43499;52.366;12.912;2023-02-19T01:15:05;101062.81;;;4.93;100.00
57668;BME280;43499;52.366;12.912;2023-02-19T01:16:09;101044.81;;;4.88;100.00
57668;BME280;43499;52.366;12.912;2023-02-19T01:17:10;101035.59;;;4.83;100.00
57668;BME280;43499;52.366;12.912;2023-02-19T01:18:11;100996.38;;;4.65;100.00
57668;BME280;43499;52.366;12.912;2023-02-19T01:19:13;101049.78;;;4.93;100.00
57668;BME280;43499;52.366;12.912;2023-02-19T01:20:14;101053.88;;;4.91;100.00
57668;BME280;43499;52.366;12.912;2023-02-19T01:21:23;101040.81;;;4.83;100.00
57668;BME280;43499;52.366;12.912;2023-02-19T01:22:24;101004.53;;;4.52;100.00
57668;BME280;43499;52.366;12.912;2023-02-19T01:23:25;101055.25;;;4.88;100.00
57668;BME280;43499;52.366;12.912;2023-02-19T01:24:26;101005.53;;;4.61;100.00
57668;BME280;43499;52.366;12.912;2023-02-19T01:25:27;101045.06;;;4.82;100.00
57668;BME280;43499;52.366;12.912;2023-02-19T01:26:30;101038.13;;;4.74;100.00
57668;BME280;43499;52.366;12.912;2023-02-19T01:27:31;101014.75;;;4.67;100.00
57668;BME280;43499;52.366;12.912;2023-02-19T01:28:33;101042.72;;;4.76;100.00
57668;BME280;43499;52.366;12.912;2023-02-19T01:29:34;101038.47;;;4.77;100.00
57668;BME280;43499;52.366;12.912;2023-02-19T01:30:36;101019.19;;;4.68;100.00
57668;BME280;43499;52.366;12.912;2023-02-19T01:31:38;101051.88;;;4.89;100.00
57668;BME280;43499;52.366;12.912;2023-02-19T01:32:39;101027.50;;;4.72;100.00
57668;BME280;43499;52.366;12.912;2023-02-19T01:33:44;100973.22;;;4.43;100.00
57668;BME280;43499;52.366;12.912;2023-02-19T01:34:45;101049.44;;;4.90;100.00
57668;BME280;43499;52.366;12.912;2023-02-19T01:35:46;100989.81;;;4.53;100.00
57668;BME280;43499;52.366;12.912;2023-02-19T01:36:47;100978.41;;;4.43;100.00
57668;BME280;43499;52.366;12.912;2023-02-19T01:37:48;101050.97;;;4.88;100.00
57668;BME280;43499;52.366;12.912;2023-02-19T01:38:50;101052.28;;;4.85;100.00
57668;BME280;43499;52.366;12.912;2023-02-19T01:39:51;101000.16;;;4.60;100.00
57668;BME280;43499;52.366;12.912;2023-02-19T01:40:56;101070.28;;;4.90;100.00
57668;BME280;43499;52.366;12.912;2023-02-19T01:41:57;101060.88;;;4.84;100.00
57668;BME280;43499;52.366;12.912;2023-02-19T01:42:58;100994.38;;;4.46;100.00
57668;BME280;43499;52.366;12.912;2023-02-19T01:45:33;101003.53;;;4.59;100.00
57668;BME280;43499;52.366;12.912;2023-02-19T01:46:39;101042.97;;;4.87;100.00
57668;BME280;43499;52.366;12.912;2023-02-19T01:47:40;100990.66;;;4.60;100.00
57668;BME280;43499;52.366;12.912;2023-02-19T01:48:41;101012.69;;;4.71;100.00
57668;BME280;43499;52.366;12.912;2023-02-19T01:49:46;101006.78;;;4.65;100.00
57668;BME280;43499;52.366;12.912;2023-02-19T01:50:59;100955.84;;;4.35;100.00
57668;BME280;43499;52.366;12.912;2023-02-19T01:52:09;100955.84;;;4.35;100.00
57668;BME280;43499;52.366;12.912;2023-02-19T01:53:14;101032.66;;;4.79;100.00
57668;BME280;43499;52.366;12.912;2023-02-19T01:54:20;100960.34;;;4.45;100.00
57668;BME280;43499;52.366;12.912;2023-02-19T01:55:22;101029.59;;;4.84;100.00
57668;BME280;43499;52.366;12.912;2023-02-19T01:56:25;100988.22;;;4.62;100.00
57668;BME280;43499;52.366;12.912;2023-02-19T01:57:31;101025.19;;;4.83;100.00
57668;BME280;43499;52.366;12.912;2023-02-19T01:58:35;101025.50;;;4.86;100.00
57668;BME280;43499;52.366;12.912;2023-02-19T01:59:37;101010.56;;;4.76;100.00
57668;BME280;43499;52.366;12.912;2023-02-19T02:00:39;101035.16;;;4.87;100.00
57668;BME280;43499;52.366;12.912;2023-02-19T02:01:40;100956.50;;;4.41;100.00
57668;BME280;43499;52.366;12.912;2023-02-19T02:02:44;100991.50;;;4.68;100.00
57668;BME280;43499;52.366;12.912;2023-02-19T02:03:48;100974.69;;;4.57;100.00
57668;BME280;43499;52.366;12.912;2023-02-19T02:04:49;101013.66;;;4.81;100.00
57668;BME280;43499;52.366;12.912;2023-02-19T02:07:13;101024.41;;;4.84;100.00
57668;BME280;43499;52.366;12.912;2023-02-19T02:08:34;101013.47;;;4.79;100.00
57668;BME280;43499;52.366;12.912;2023-02-19T02:09:55;101008.53;;;4.73;100.00
57668;BME280;43499;52.366;12.912;2023-02-19T02:11:15;101030.88;;;4.87;100.00
57668;BME280;43499;52.366;12.912;2023-02-19T02:12:17;101017.03;;;4.79;100.00
57668;BME280;43499;52.366;12.912;2023-02-19T02:13:18;101025.50;;;4.86;100.00
57668;BME280;43499;52.366;12.912;2023-02-19T02:14:26;100994.97;;;4.60;100.00
57668;BME280;43499;52.366;12.912;2023-02-19T02:15:35;101012.56;;;4.78;100.00
57668;BME280;43499;52.366;12.912;2023-02-19T02:18:28;100983.19;;;4.63;100.00
57668;BME280;43499;52.366;12.912;2023-02-19T02:22:31;101009.22;;;4.79;100.00
57668;BME280;43499;52.366;12.912;2023-02-19T02:23:45;100990.50;;;4.75;100.00
57668;BME280;43499;52.366;12.912;2023-02-19T02:28:40;101004.91;;;4.80;100.00
57668;BME280;43499;52.366;12.912;2023-02-19T02:30:14;100995.59;;;4.82;100.00
57668;BME280;43499;52.366;12.912;2023-02-19T02:31:21;101002.50;;;4.82;100.00
57668;BME280;43499;52.366;12.912;2023-02-19T02:32:29;100921.81;;;4.33;100.00
57668;BME280;43499;52.366;12.912;2023-02-19T02:33:41;100951.53;;;4.52;100.00
57668;BME280;43499;52.366;12.912;2023-02-19T02:34:55;100964.63;;;4.60;100.00
57668;BME280;43499;52.366;12.912;2023-02-19T02:36:02;100976.03;;;4.70;100.00
57668;BME280;43499;52.366;12.912;2023-02-19T02:37:06;100989.13;;;4.78;100.00
57668;BME280;43499;52.366;12.912;2023-02-19T02:38:10;100912.16;;;4.32;100.00
57668;BME280;43499;52.366;12.912;2023-02-19T02:39:14;100994.34;;;4.78;100.00
57668;BME280;43499;52.366;12.912;2023-02-19T02:40:17;100981.44;;;4.71;100.00
57668;BME280;43499;52.366;12.912;2023-02-19T02:41:19;101004.41;;;4.75;100.00
57668;BME280;43499;52.366;12.912;2023-02-19T02:42:20;100983.09;;;4.71;100.00
57668;BME280;43499;52.366;12.912;2023-02-19T02:43:36;100981.69;;;4.66;100.00
57668;BME280;43499;52.366;12.912;2023-02-19T02:44:38;100995.50;;;4.73;100.00
57668;BME280;43499;52.366;12.912;2023-02-19T02:45:40;100998.31;;;4.75;100.00
57668;BME280;43499;52.366;12.912;2023-02-19T02:46:47;100999.81;;;4.73;100.00
57668;BME280;43499;52.366;12.912;2023-02-19T02:47:52;100991.66;;;4.70;100.00
57668;BME280;43499;52.366;12.912;2023-02-19T02:49:01;100994.44;;;4.71;100.00
57668;BME280;43499;52.366;12.912;2023-02-19T02:50:09;100983.19;;;4.63;100.00
57668;BME280;43499;52.366;12.912;2023-02-19T02:51:24;100992.75;;;4.72;100.00
57668;BME280;43499;52.366;12.912;2023-02-19T02:52:37;100963.44;;;4.50;100.00
57668;BME280;43499;52.366;12.912;2023-02-19T02:54:11;100985.06;;;4.65;100.00
57668;BME280;43499;52.366;12.912;2023-02-19T02:55:38;100969.19;;;4.54;100.00
57668;BME280;43499;52.366;12.912;2023-02-19T02:56:42;100956.69;;;4.43;100.00
57668;BME280;43499;52.366;12.912;2023-02-19T02:57:44;100992.09;;;4.66;100.00
57668;BME280;43499;52.366;12.912;2023-02-19T02:58:47;100944.84;;;4.38;100.00
57668;BME280;43499;52.366;12.912;2023-02-19T02:59:49;100993.75;;;4.65;100.00
57668;BME280;43499;52.366;12.912;2023-02-19T03:01:00;100994.53;;;4.64;100.00
57668;BME280;43499;52.366;12.912;2023-02-19T03:02:25;100975.44;;;4.56;100.00
57668;BME280;43499;52.366;12.912;2023-02-19T03:03:29;100951.38;;;4.34;100.00
57668;BME280;43499;52.366;12.912;2023-02-19T03:04:59;100988.06;;;4.60;100.00
57668;BME280;43499;52.366;12.912;2023-02-19T03:06:21;100986.22;;;4.59;100.00
57668;BME280;43499;52.366;12.912;2023-02-19T03:07:26;100968.84;;;4.51;100.00
57668;BME280;43499;52.366;12.912;2023-02-19T03:08:39;100990.31;;;4.57;100.00
57668;BME280;43499;52.366;12.912;2023-02-19T03:09:42;100944.16;;;4.31;100.00
57668;BME280;43499;52.366;12.912;2023-02-19T03:10:57;100954.16;;;4.36;100.00
57668;BME280;43499;52.366;12.912;2023-02-19T03:12:02;100985.72;;;4.55;100.00
57668;BME280;43499;52.366;12.912;2023-02-19T03:13:27;100982.97;;;4.53;100.00
57668;BME280;43499;52.366;12.912;2023-02-19T03:14:54;100953.16;;;4.26;100.00
57668;BME280;43499;52.366;12.912;2023-02-19T03:16:26;100993.03;;;4.50;100.00
57668;BME280;43499;52.366;12.912;2023-02-19T03:17:54;100986.88;;;4.50;100.00
57668;BME280;43499;52.366;12.912;2023-02-19T03:19:18;100953.75;;;4.24;100.00
57668;BME280;43499;52.366;12.912;2023-02-19T03:20:23;100986.72;;;4.48;100.00
57668;BME280;43499;52.366;12.912;2023-02-19T03:21:24;100986.72;;;4.48;100.00
57668;BME280;43499;52.366;12.912;2023-02-19T03:22:33;100987.81;;;4.50;100.00
57668;BME280;43499;52.366;12.912;2023-02-19T03:23:36;100998.81;;;4.47;100.00
57668;BME280;43499;52.366;12.912;2023-02-19T03:25:00;100984.38;;;4.42;100.00
57668;BME280;43499;52.366;12.912;2023-02-19T03:26:22;100960.53;;;4.30;100.00
57668;BME280;43499;52.366;12.912;2023-02-19T03:27:27;100997.03;;;4.39;100.00
57668;BME280;43499;52.366;12.912;2023-02-19T03:28:32;101002.59;;;4.42;100.00
57668;BME280;43499;52.366;12.912;2023-02-19T03:29:57;100994.53;;;4.32;100.00
57668;BME280;43499;52.366;12.912;2023-02-19T03:31:01;100974.22;;;4.21;100.00
57668;BME280;43499;52.366;12.912;2023-02-19T03:32:11;100984.03;;;4.23;100.00
57668;BME280;43499;52.366;12.912;2023-02-19T03:33:17;101017.53;;;4.36;100.00
57668;BME280;43499;52.366;12.912;2023-02-19T03:34:25;100966.75;;;4.08;100.00
57668;BME280;43499;52.366;12.912;2023-02-19T03:35:30;101012.41;;;4.29;100.00
57668;BME280;43499;52.366;12.912;2023-02-19T03:36:37;101017.19;;;4.33;100.00
57668;BME280;43499;52.366;12.912;2023-02-19T03:37:44;101027.00;;;4.36;100.00
57668;BME280;43499;52.366;12.912;2023-02-19T03:39:57;101017.34;;;4.19;100.00
57668;BME280;43499;52.366;12.912;2023-02-19T03:41:15;101016.44;;;4.18;100.00
57668;BME280;43499;52.366;12.912;2023-02-19T03:42:43;101025.91;;;4.17;100.00
57668;BME280;43499;52.366;12.912;2023-02-19T03:44:01;101024.78;;;4.15;100.00
57668;BME280;43499;52.366;12.912;2023-02-19T03:45:14;101028.94;;;4.13;100.00
57668;BME280;43499;52.366;12.912;2023-02-19T03:46:24;101028.97;;;4.06;100.00
57668;BME280;43499;52.366;12.912;2023-02-19T03:47:56;100966.22;;;3.64;100.00
57668;BME280;43499;52.366;12.912;2023-02-19T03:49:09;101027.53;;;3.85;100.00
57668;BME280;43499;52.366;12.912;2023-02-19T03:50:51;101040.84;;;3.88;100.00
57668;BME280;43499;52.366;12.912;2023-02-19T03:52:11;101026.47;;;3.76;100.00
57668;BME280;43499;52.366;12.912;2023-02-19T03:53:26;101038.31;;;3.81;100.00
57668;BME280;43499;52.366;12.912;2023-02-19T03:54:50;101033.94;;;3.73;100.00
57668;BME280;43499;52.366;12.912;2023-02-19T03:56:13;101049.84;;;3.76;100.00
57668;BME280;43499;52.366;12.912;2023-02-19T03:59:15;101057.34;;;3.73;100.00
57668;BME280;43499;52.366;12.912;2023-02-19T04:00:26;101057.84;;;3.77;100.00
57668;BME280;43499;52.366;12.912;2023-02-19T04:01:36;100996.34;;;3.31;100.00
57668;BME280;43499;52.366;12.912;2023-02-19T04:02:46;101047.19;;;3.60;100.00
57668;BME280;43499;52.366;12.912;2023-02-19T04:04:19;101033.38;;;3.45;100.00
57668;BME280;43499;52.366;12.912;2023-02-19T04:05:24;101032.13;;;3.34;100.00
57668;BME280;43499;52.366;12.912;2023-02-19T04:06:29;101069.38;;;3.49;100.00
57668;BME280;43499;52.366;12.912;2023-02-19T04:07:34;101051.50;;;3.29;100.00
57668;BME280;43499;52.366;12.912;2023-02-19T04:08:38;101058.75;;;3.24;100.00
57668;BME280;43499;52.366;12.912;2023-02-19T04:09:47;101029.00;;;3.06;100.00
57668;BME280;43499;52.366;12.912;2023-02-19T04:10:54;101051.63;;;3.07;100.00
57668;BME280;43499;52.366;12.912;2023-02-19T04:11:58;101007.59;;;2.78;100.00
57668;BME280;43499;52.366;12.912;2023-02-19T04:13:05;101077.91;;;3.17;100.00
57668;BME280;43499;52.366;12.912;2023-02-19T04:14:16;101075.31;;;3.17;100.00
57668;BME280;43499;52.366;12.912;2023-02-19T04:15:22;101061.63;;;3.04;100.00
57668;BME280;43499;52.366;12.912;2023-02-19T04:16:27;101078.88;;;3.11;100.00
57668;BME280;43499;52.366;12.912;2023-02-19T04:17:35;101085.91;;;3.12;100.00
57668;BME280;43499;52.366;12.912;2023-02-19T04:18:39;101066.47;;;3.01;100.00
57668;BME280;43499;52.366;12.912;2023-02-19T04:19:41;101065.22;;;2.90;100.00
57668;BME280;43499;52.366;12.912;2023-02-19T04:20:44;101095.44;;;2.97;100.00
57668;BME280;43499;52.366;12.912;2023-02-19T04:21:46;101035.44;;;2.72;100.00
57668;BME280;43499;52.366;12.912;2023-02-19T04:22:49;101093.00;;;2.98;100.00
57668;BME280;43499;52.366;12.912;2023-02-19T04:23:51;101030.47;;;2.59;100.00
57668;BME280;43499;52.366;12.912;2023-02-19T04:24:52;101089.31;;;2.96;100.00
57668;BME280;43499;52.366;12.912;2023-02-19T04:25:58;101080.63;;;2.88;100.00
57668;BME280;43499;52.366;12.912;2023-02-19T04:26:59;101012.53;;;2.46;100.00
57668;BME280;43499;52.366;12.912;2023-02-19T04:28:01;101095.97;;;2.94;100.00
57668;BME280;43499;52.366;12.912;2023-02-19T04:29:02;101086.59;;;2.87;100.00
57668;BME280;43499;52.366;12.912;2023-02-19T04:30:07;101081.41;;;2.80;100.00
57668;BME280;43499;52.366;12.912;2023-02-19T04:31:11;101080.06;;;2.84;100.00
57668;BME280;43499;52.366;12.912;2023-02-19T04:32:13;101069.19;;;2.72;100.00
57668;BME280;43499;52.366;12.912;2023-02-19T04:33:14;100994.41;;;2.39;100.00
57668;BME280;43499;52.366;12.912;2023-02-19T04:34:15;101099.16;;;2.91;100.00
57668;BME280;43499;52.366;12.912;2023-02-19T04:35:16;101074.38;;;2.72;100.00
57668;BME280;43499;52.366;12.912;2023-02-19T04:36:17;101049.03;;;2.55;100.00
57668;BME280;43499;52.366;12.912;2023-02-19T04:37:18;101104.75;;;2.87;100.00
57668;BME280;43499;52.366;12.912;2023-02-19T04:38:19;101070.88;;;2.64;100.00
57668;BME280;43499;52.366;12.912;2023-02-19T04:39:20;101092.19;;;2.76;100.00
57668;BME280;43499;52.366;12.912;2023-02-19T04:40:21;101042.94;;;2.47;100.00
57668;BME280;43499;52.366;12.912;2023-02-19T04:41:22;101092.75;;;2.66;100.00
57668;BME280;43499;52.366;12.912;2023-02-19T04:42:23;101054.81;;;2.52;100.00
57668;BME280;43499;52.366;12.912;2023-02-19T04:43:24;101068.28;;;2.64;100.00
57668;BME280;43499;52.366;12.912;2023-02-19T04:44:25;101040.72;;;2.43;100.00
57668;BME280;43499;52.366;12.912;2023-02-19T04:45:26;101114.78;;;2.77;100.00
57668;BME280;43499;52.366;12.912;2023-02-19T04:46:27;101108.50;;;2.75;100.00
57668;BME280;43499;52.366;12.912;2023-02-19T04:47:31;101083.50;;;2.61;100.00
57668;BME280;43499;52.366;12.912;2023-02-19T04:48:32;101036.66;;;2.38;100.00
57668;BME280;43499;52.366;12.912;2023-02-19T04:49:33;101097.00;;;2.73;100.00
57668;BME280;43499;52.366;12.912;2023-02-19T04:50:37;101069.06;;;2.56;100.00
57668;BME280;43499;52.366;12.912;2023-02-19T04:51:38;101073.72;;;2.51;100.00
57668;BME280;43499;52.366;12.912;2023-02-19T04:52:39;101106.63;;;2.81;100.00
57668;BME280;43499;52.366;12.912;2023-02-19T04:53:40;101105.88;;;2.82;100.00
57668;BME280;43499;52.366;12.912;2023-02-19T04:54:42;101087.00;;;2.69;100.00
57668;BME280;43499;52.366;12.912;2023-02-19T04:55:43;101089.59;;;2.69;100.00
57668;BME280;43499;52.366;12.912;2023-02-19T04:56:44;101101.63;;;2.75;100.00
57668;BME280;43499;52.366;12.912;2023-02-19T04:57:46;101045.72;;;2.41;100.00
57668;BME280;43499;52.366;12.912;2023-02-19T04:58:47;101084.81;;;2.65;100.00
57668;BME280;43499;52.366;12.912;2023-02-19T04:59:48;101105.69;;;2.73;100.00
57668;BME280;43499;52.366;12.912;2023-02-19T05:00:52;101081.66;;;2.53;100.00
57668;BME280;43499;52.366;12.912;2023-02-19T05:01:53;101058.75;;;2.34;100.00
57668;BME280;43499;52.366;12.912;2023-02-19T05:02:54;101086.28;;;2.55;100.00
57668;BME280;43499;52.366;12.912;2023-02-19T05:03:55;101080.00;;;2.46;100.00
57668;BME280;43499;52.366;12.912;2023-02-19T05:04:56;101070.00;;;2.42;100.00
57668;BME280;43499;52.366;12.912;2023-02-19T05:06:01;101069.25;;;2.43;100.00
57668;BME280;43499;52.366;12.912;2023-02-19T05:07:02;101058.19;;;2.29;100.00
57668;BME280;43499;52.366;12.912;2023-02-19T05:08:03;101121.31;;;2.66;100.00
57668;BME280;43499;52.366;12.912;2023-02-19T05:09:04;101037.06;;;2.19;100.00
57668;BME280;43499;52.366;12.912;2023-02-19T05:10:05;101098.13;;;2.53;100.00
57668;BME280;43499;52.366;12.912;2023-02-19T05:11:08;101117.41;;;2.55;100.00
57668;BME280;43499;52.366;12.912;2023-02-19T05:12:10;101080.97;;;2.32;100.00
57668;BME280;43499;52.366;12.912;2023-02-19T05:13:11;101092.81;;;2.37;100.00
57668;BME280;43499;52.366;12.912;2023-02-19T05:14:12;101110.78;;;2.50;100.00
57668;BME280;43499;52.366;12.912;2023-02-19T05:15:13;101075.22;;;2.27;100.00
57668;BME280;43499;52.366;12.912;2023-02-19T05:16:15;101112.25;;;2.48;100.00
57668;BME280;43499;52.366;12.912;2023-02-19T05:17:17;101114.84;;;2.48;100.00
57668;BME280;43499;52.366;12.912;2023-02-19T05:18:18;101081.88;;;2.33;100.00
57668;BME280;43499;52.366;12.912;2023-02-19T05:19:19;101121.88;;;2.56;100.00
57668;BME280;43499;52.366;12.912;2023-02-19T05:20:20;101074.66;;;2.30;100.00
57668;BME280;43499;52.366;12.912;2023-02-19T05:21:22;101058.59;;;2.18;100.00
57668;BME280;43499;52.366;12.912;2023-02-19T05:22:23;101071.53;;;2.25;100.00
57668;BME280;43499;52.366;12.912;2023-02-19T05:23:25;101132.09;;;2.55;100.00
57668;BME280;43499;52.366;12.912;2023-02-19T05:24:26;101088.00;;;2.33;100.00
57668;BME280;43499;52.366;12.912;2023-02-19T05:25:28;101117.28;;;2.46;100.00
57668;BME280;43499;52.366;12.912;2023-02-19T05:26:29;101113.75;;;2.46;100.00
57668;BME280;43499;52.366;12.912;2023-02-19T05:27:31;101085.94;;;2.30;100.00
57668;BME280;43499;52.366;12.912;2023-02-19T05:28:32;101092.25;;;2.40;100.00
57668;BME280;43499;52.366;12.912;2023-02-19T05:29:33;101110.44;;;2.40;100.00
57668;BME280;43499;52.366;12.912;2023-02-19T05:30:34;101117.06;;;2.45;100.00
57668;BME280;43499;52.366;12.912;2023-02-19T05:31:35;101105.25;;;2.40;100.00
57668;BME280;43499;52.366;12.912;2023-02-19T05:32:36;101102.97;;;2.43;100.00
57668;BME280;43499;52.366;12.912;2023-02-19T05:33:37;101104.09;;;2.45;100.00
57668;BME280;43499;52.366;12.912;2023-02-19T05:34:39;101085.41;;;2.33;100.00
57668;BME280;43499;52.366;12.912;2023-02-19T05:35:42;101104.66;;;2.42;100.00
57668;BME280;43499;52.366;12.912;2023-02-19T05:36:43;101131.13;;;2.54;100.00
57668;BME280;43499;52.366;12.912;2023-02-19T05:37:44;101145.22;;;2.56;100.00
57668;BME280;43499;52.366;12.912;2023-02-19T05:38:45;101084.50;;;2.25;100.00
57668;BME280;43499;52.366;12.912;2023-02-19T05:39:47;101077.47;;;2.17;100.00
57668;BME280;43499;52.366;12.912;2023-02-19T05:40:49;101118.56;;;2.43;100.00
57668;BME280;43499;52.366;12.912;2023-02-19T05:41:50;101103.75;;;2.35;100.00
57668;BME280;43499;52.366;12.912;2023-02-19T05:42:51;101081.16;;;2.19;100.00
57668;BME280;43499;52.366;12.912;2023-02-19T05:43:53;101064.88;;;2.13;100.00
57668;BME280;43499;52.366;12.912;2023-02-19T05:44:55;101138.75;;;2.53;100.00
57668;BME280;43499;52.366;12.912;2023-02-19T05:45:59;101086.16;;;2.25;100.00
57668;BME280;43499;52.366;12.912;2023-02-19T05:47:00;101118.56;;;2.43;100.00
57668;BME280;43499;52.366;12.912;2023-02-19T05:48:03;101139.13;;;2.56;100.00
57668;BME280;43499;52.366;12.912;2023-02-19T05:49:04;101090.97;;;2.29;100.00
57668;BME280;43499;52.366;12.912;2023-02-19T05:50:06;101135.97;;;2.58;100.00
57668;BME280;43499;52.366;12.912;2023-02-19T05:51:09;101077.81;;;2.20;100.00